sensor_id;sensor_type;location;lat;lon;timestamp;temperature;humidity
8792;DHT22;4432;50.890;4.744;2022-07-21T00:00:44;18.00;99.90
8792;DHT22;4432;50.890;4.744;2022-07-21T00:03:10;18.00;99.90
8792;DHT22;4432;50.890;4.744;2022-07-21T00:05:36;18.00;99.90
8792;DHT22;4432;50.890;4.744;2022-07-21T00:08:02;18.00;99.90
8792;DHT22;4432;50.890;4.744;2022-07-21T00:10:28;18.00;99.90
8792;DHT22;4432;50.890;4.744;2022-07-21T00:12:54;18.00;99.90
8792;DHT22;4432;50.890;4.744;2022-07-21T00:15:22;18.00;99.90
8792;DHT22;4432;50.890;4.744;2022-07-21T00:17:48;17.90;99.90
8792;DHT22;4432;50.890;4.744;2022-07-21T00:20:15;18.00;99.90
8792;DHT22;4432;50.890;4.744;2022-07-21T00:22:42;18.00;99.90
8792;DHT22;4432;50.890;4.744;2022-07-21T00:25:09;18.00;99.90
8792;DHT22;4432;50.890;4.744;2022-07-21T00:27:35;17.90;99.90
8792;DHT22;4432;50.890;4.744;2022-07-21T00:30:03;17.90;99.90
8792;DHT22;4432;50.890;4.744;2022-07-21T00:32:29;18.00;99.90
8792;DHT22;4432;50.890;4.744;2022-07-21T00:34:55;18.00;99.90
8792;DHT22;4432;50.890;4.744;2022-07-21T00:37:21;18.00;99.90
8792;DHT22;4432;50.890;4.744;2022-07-21T00:39:52;18.00;99.90
8792;DHT22;4432;50.890;4.744;2022-07-21T00:42:26;18.00;99.90
8792;DHT22;4432;50.890;4.744;2022-07-21T00:44:52;18.10;99.90
8792;DHT22;4432;50.890;4.744;2022-07-21T00:47:27;18.10;99.90
8792;DHT22;4432;50.890;4.744;2022-07-21T00:49:53;18.00;99.90
8792;DHT22;4432;50.890;4.744;2022-07-21T00:52:19;18.10;99.90
8792;DHT22;4432;50.890;4.744;2022-07-21T00:54:45;18.10;99.90
8792;DHT22;4432;50.890;4.744;2022-07-21T00:57:12;18.00;99.90
8792;DHT22;4432;50.890;4.744;2022-07-21T00:59:38;18.00;99.90
8792;DHT22;4432;50.890;4.744;2022-07-21T01:02:05;18.00;99.90
8792;DHT22;4432;50.890;4.744;2022-07-21T01:04:30;18.00;99.90
8792;DHT22;4432;50.890;4.744;2022-07-21T01:06:57;18.10;99.90
8792;DHT22;4432;50.890;4.744;2022-07-21T01:09:23;18.10;99.90
8792;DHT22;4432;50.890;4.744;2022-07-21T01:11:49;18.10;99.90
8792;DHT22;4432;50.890;4.744;2022-07-21T01:14:15;18.10;99.90
8792;DHT22;4432;50.890;4.744;2022-07-21T01:16:41;18.10;99.90
8792;DHT22;4432;50.890;4.744;2022-07-21T01:19:09;18.10;99.90
8792;DHT22;4432;50.890;4.744;2022-07-21T01:21:37;18.10;99.90
8792;DHT22;4432;50.890;4.744;2022-07-21T01:24:05;18.20;99.90
8792;DHT22;4432;50.890;4.744;2022-07-21T01:26:39;18.10;99.90
8792;DHT22;4432;50.890;4.744;2022-07-21T01:29:05;18.10;99.90
8792;DHT22;4432;50.890;4.744;2022-07-21T01:31:30;18.10;99.90
8792;DHT22;4432;50.890;4.744;2022-07-21T01:33:56;18.10;99.90
8792;DHT22;4432;50.890;4.744;2022-07-21T01:36:22;18.10;99.90
8792;DHT22;4432;50.890;4.744;2022-07-21T01:38:47;18.00;99.90
8792;DHT22;4432;50.890;4.744;2022-07-21T01:41:32;18.00;99.90
8792;DHT22;4432;50.890;4.744;2022-07-21T01:44:10;18.00;99.90
8792;DHT22;4432;50.890;4.744;2022-07-21T01:46:42;17.90;99.90
8792;DHT22;4432;50.890;4.744;2022-07-21T01:49:09;17.90;99.90
8792;DHT22;4432;50.890;4.744;2022-07-21T01:51:36;17.90;99.90
8792;DHT22;4432;50.890;4.744;2022-07-21T01:54:02;17.90;99.90
8792;DHT22;4432;50.890;4.744;2022-07-21T01:56:28;17.80;99.90
8792;DHT22;4432;50.890;4.744;2022-07-21T01:58:56;17.80;99.90
8792;DHT22;4432;50.890;4.744;2022-07-21T02:01:24;17.80;99.90
8792;DHT22;4432;50.890;4.744;2022-07-21T02:03:52;17.80;99.90
8792;DHT22;4432;50.890;4.744;2022-07-21T02:06:18;17.80;99.90
8792;DHT22;4432;50.890;4.744;2022-07-21T02:08:44;17.80;99.90
8792;DHT22;4432;50.890;4.744;2022-07-21T02:11:11;17.90;99.90
8792;DHT22;4432;50.890;4.744;2022-07-21T02:13:37;17.90;99.90
8792;DHT22;4432;50.890;4.744;2022-07-21T02:16:04;17.90;99.90
8792;DHT22;4432;50.890;4.744;2022-07-21T02:18:30;17.90;99.90
8792;DHT22;4432;50.890;4.744;2022-07-21T02:20:56;17.90;99.90
8792;DHT22;4432;50.890;4.744;2022-07-21T02:23:23;17.90;99.90
8792;DHT22;4432;50.890;4.744;2022-07-21T02:25:50;17.90;99.90
8792;DHT22;4432;50.890;4.744;2022-07-21T02:28:20;17.90;99.90
8792;DHT22;4432;50.890;4.744;2022-07-21T02:30:47;17.90;99.90
8792;DHT22;4432;50.890;4.744;2022-07-21T02:33:13;17.90;99.90
8792;DHT22;4432;50.890;4.744;2022-07-21T02:35:40;17.90;99.90
8792;DHT22;4432;50.890;4.744;2022-07-21T02:38:06;18.00;99.90
8792;DHT22;4432;50.890;4.744;2022-07-21T02:40:32;17.90;99.90
8792;DHT22;4432;50.890;4.744;2022-07-21T02:42:58;17.90;99.90
8792;DHT22;4432;50.890;4.744;2022-07-21T02:45:24;17.90;99.90
8792;DHT22;4432;50.890;4.744;2022-07-21T02:47:55;17.90;99.90
8792;DHT22;4432;50.890;4.744;2022-07-21T02:50:23;17.90;99.90
8792;DHT22;4432;50.890;4.744;2022-07-21T02:52:49;17.90;99.90
8792;DHT22;4432;50.890;4.744;2022-07-21T02:55:15;17.90;99.90
8792;DHT22;4432;50.890;4.744;2022-07-21T02:57:41;17.90;99.90
8792;DHT22;4432;50.890;4.744;2022-07-21T03:00:09;17.90;99.90
8792;DHT22;4432;50.890;4.744;2022-07-21T03:02:35;18.00;99.90
8792;DHT22;4432;50.890;4.744;2022-07-21T03:05:01;17.90;99.90
8792;DHT22;4432;50.890;4.744;2022-07-21T03:07:27;17.90;99.90
8792;DHT22;4432;50.890;4.744;2022-07-21T03:09:53;18.00;99.90
8792;DHT22;4432;50.890;4.744;2022-07-21T03:12:18;17.90;99.90
8792;DHT22;4432;50.890;4.744;2022-07-21T03:14:44;17.90;99.90
8792;DHT22;4432;50.890;4.744;2022-07-21T03:17:10;17.90;99.90
8792;DHT22;4432;50.890;4.744;2022-07-21T03:19:36;17.90;99.90
8792;DHT22;4432;50.890;4.744;2022-07-21T03:22:02;17.90;99.90
8792;DHT22;4432;50.890;4.744;2022-07-21T03:24:28;17.90;99.90
8792;DHT22;4432;50.890;4.744;2022-07-21T03:26:55;17.90;99.90
8792;DHT22;4432;50.890;4.744;2022-07-21T03:29:21;17.90;99.90
8792;DHT22;4432;50.890;4.744;2022-07-21T03:31:47;17.90;99.90
8792;DHT22;4432;50.890;4.744;2022-07-21T03:34:13;17.90;99.90
8792;DHT22;4432;50.890;4.744;2022-07-21T03:36:38;17.90;99.90
8792;DHT22;4432;50.890;4.744;2022-07-21T03:39:04;17.90;99.90
8792;DHT22;4432;50.890;4.744;2022-07-21T03:41:30;18.00;99.90
8792;DHT22;4432;50.890;4.744;2022-07-21T03:43:56;17.90;99.90
8792;DHT22;4432;50.890;4.744;2022-07-21T03:46:23;18.00;99.90
8792;DHT22;4432;50.890;4.744;2022-07-21T03:48:49;17.90;99.90
8792;DHT22;4432;50.890;4.744;2022-07-21T03:51:14;17.90;99.90
8792;DHT22;4432;50.890;4.744;2022-07-21T03:53:40;17.90;99.90
8792;DHT22;4432;50.890;4.744;2022-07-21T03:56:06;17.90;99.90
8792;DHT22;4432;50.890;4.744;2022-07-21T03:58:32;17.90;99.90
8792;DHT22;4432;50.890;4.744;2022-07-21T04:00:57;17.90;99.90
8792;DHT22;4432;50.890;4.744;2022-07-21T04:03:23;17.90;99.90
8792;DHT22;4432;50.890;4.744;2022-07-21T04:05:49;17.90;99.90
8792;DHT22;4432;50.890;4.744;2022-07-21T04:08:15;17.90;99.90
8792;DHT22;4432;50.890;4.744;2022-07-21T04:10:42;17.90;99.90
8792;DHT22;4432;50.890;4.744;2022-07-21T04:13:11;17.90;99.90
8792;DHT22;4432;50.890;4.744;2022-07-21T04:15:37;18.00;99.90
8792;DHT22;4432;50.890;4.744;2022-07-21T04:18:04;18.00;99.90
8792;DHT22;4432;50.890;4.744;2022-07-21T04:20:30;18.10;99.90
8792;DHT22;4432;50.890;4.744;2022-07-21T04:22:56;18.10;99.90
8792;DHT22;4432;50.890;4.744;2022-07-21T04:25:22;18.10;99.90
8792;DHT22;4432;50.890;4.744;2022-07-21T04:27:48;18.20;99.90
8792;DHT22;4432;50.890;4.744;2022-07-21T04:30:17;18.20;99.90
8792;DHT22;4432;50.890;4.744;2022-07-21T04:32:44;18.20;99.90
8792;DHT22;4432;50.890;4.744;2022-07-21T04:35:10;18.20;99.90
8792;DHT22;4432;50.890;4.744;2022-07-21T04:37:36;18.30;99.90
8792;DHT22;4432;50.890;4.744;2022-07-21T04:40:04;18.30;99.90
8792;DHT22;4432;50.890;4.744;2022-07-21T04:42:30;18.30;99.90
8792;DHT22;4432;50.890;4.744;2022-07-21T04:44:56;18.40;99.90
8792;DHT22;4432;50.890;4.744;2022-07-21T04:47:22;18.50;99.90
8792;DHT22;4432;50.890;4.744;2022-07-21T04:49:47;18.50;99.90
8792;DHT22;4432;50.890;4.744;2022-07-21T04:52:13;18.50;99.90
8792;DHT22;4432;50.890;4.744;2022-07-21T04:54:39;18.60;99.90
8792;DHT22;4432;50.890;4.744;2022-07-21T04:57:05;18.60;99.90
8792;DHT22;4432;50.890;4.744;2022-07-21T04:59:32;18.60;99.90
8792;DHT22;4432;50.890;4.744;2022-07-21T05:01:58;18.60;99.90
8792;DHT22;4432;50.890;4.744;2022-07-21T05:04:25;18.50;99.90
8792;DHT22;4432;50.890;4.744;2022-07-21T05:06:51;18.60;99.90
8792;DHT22;4432;50.890;4.744;2022-07-21T05:09:17;18.60;99.90
8792;DHT22;4432;50.890;4.744;2022-07-21T05:11:43;18.60;99.90
8792;DHT22;4432;50.890;4.744;2022-07-21T05:14:09;18.60;99.90
8792;DHT22;4432;50.890;4.744;2022-07-21T05:16:34;18.60;99.90
8792;DHT22;4432;50.890;4.744;2022-07-21T05:19:00;18.60;99.90
8792;DHT22;4432;50.890;4.744;2022-07-21T05:21:26;18.60;99.90
8792;DHT22;4432;50.890;4.744;2022-07-21T05:23:52;18.60;99.90
8792;DHT22;4432;50.890;4.744;2022-07-21T05:26:18;18.70;99.90
8792;DHT22;4432;50.890;4.744;2022-07-21T05:28:43;18.70;99.90
8792;DHT22;4432;50.890;4.744;2022-07-21T05:31:09;18.80;99.90
8792;DHT22;4432;50.890;4.744;2022-07-21T05:33:35;18.80;99.90
8792;DHT22;4432;50.890;4.744;2022-07-21T05:36:03;18.80;99.90
8792;DHT22;4432;50.890;4.744;2022-07-21T05:38:28;18.90;99.90
8792;DHT22;4432;50.890;4.744;2022-07-21T05:40:54;18.90;99.90
8792;DHT22;4432;50.890;4.744;2022-07-21T05:43:20;19.00;99.90
8792;DHT22;4432;50.890;4.744;2022-07-21T05:45:45;19.00;99.90
8792;DHT22;4432;50.890;4.744;2022-07-21T05:48:11;19.10;99.90
8792;DHT22;4432;50.890;4.744;2022-07-21T05:50:37;19.20;99.90
8792;DHT22;4432;50.890;4.744;2022-07-21T05:53:04;19.20;99.90
8792;DHT22;4432;50.890;4.744;2022-07-21T05:55:29;19.20;99.90
8792;DHT22;4432;50.890;4.744;2022-07-21T05:57:55;19.30;99.90
8792;DHT22;4432;50.890;4.744;2022-07-21T06:00:21;19.30;99.90
8792;DHT22;4432;50.890;4.744;2022-07-21T06:02:46;19.30;99.90
8792;DHT22;4432;50.890;4.744;2022-07-21T06:05:13;19.30;99.90
8792;DHT22;4432;50.890;4.744;2022-07-21T06:07:40;19.30;99.90
8792;DHT22;4432;50.890;4.744;2022-07-21T06:10:06;19.20;99.90
8792;DHT22;4432;50.890;4.744;2022-07-21T06:12:32;19.00;99.90
8792;DHT22;4432;50.890;4.744;2022-07-21T06:14:58;19.00;99.90
8792;DHT22;4432;50.890;4.744;2022-07-21T06:17:24;19.00;99.90
8792;DHT22;4432;50.890;4.744;2022-07-21T06:19:50;19.10;99.90
8792;DHT22;4432;50.890;4.744;2022-07-21T06:22:16;19.00;99.90
8792;DHT22;4432;50.890;4.744;2022-07-21T06:24:42;19.00;99.90
8792;DHT22;4432;50.890;4.744;2022-07-21T06:27:07;18.90;99.90
8792;DHT22;4432;50.890;4.744;2022-07-21T06:29:33;18.80;99.90
8792;DHT22;4432;50.890;4.744;2022-07-21T06:31:59;18.80;99.90
8792;DHT22;4432;50.890;4.744;2022-07-21T06:34:25;18.80;99.90
8792;DHT22;4432;50.890;4.744;2022-07-21T06:36:51;18.80;99.90
8792;DHT22;4432;50.890;4.744;2022-07-21T06:39:17;18.80;99.90
8792;DHT22;4432;50.890;4.744;2022-07-21T06:41:43;18.80;99.90
8792;DHT22;4432;50.890;4.744;2022-07-21T06:44:08;18.80;99.90
8792;DHT22;4432;50.890;4.744;2022-07-21T06:46:34;18.80;99.90
8792;DHT22;4432;50.890;4.744;2022-07-21T06:49:01;18.70;99.90
8792;DHT22;4432;50.890;4.744;2022-07-21T06:51:27;18.70;99.90
8792;DHT22;4432;50.890;4.744;2022-07-21T06:53:53;18.70;99.90
8792;DHT22;4432;50.890;4.744;2022-07-21T06:56:19;18.70;99.90
8792;DHT22;4432;50.890;4.744;2022-07-21T06:58:45;18.70;99.90
8792;DHT22;4432;50.890;4.744;2022-07-21T07:01:11;18.70;99.90
8792;DHT22;4432;50.890;4.744;2022-07-21T07:03:38;18.70;99.90
8792;DHT22;4432;50.890;4.744;2022-07-21T07:06:04;18.70;99.90
8792;DHT22;4432;50.890;4.744;2022-07-21T07:08:31;18.70;99.90
8792;DHT22;4432;50.890;4.744;2022-07-21T07:10:57;18.80;99.90
8792;DHT22;4432;50.890;4.744;2022-07-21T07:13:22;18.80;99.90
8792;DHT22;4432;50.890;4.744;2022-07-21T07:15:48;18.70;99.90
8792;DHT22;4432;50.890;4.744;2022-07-21T07:18:14;18.70;99.90
8792;DHT22;4432;50.890;4.744;2022-07-21T07:20:40;18.70;99.90
8792;DHT22;4432;50.890;4.744;2022-07-21T07:23:05;18.60;99.90
8792;DHT22;4432;50.890;4.744;2022-07-21T07:25:31;18.60;99.90
8792;DHT22;4432;50.890;4.744;2022-07-21T07:27:58;18.60;99.90
8792;DHT22;4432;50.890;4.744;2022-07-21T07:30:24;18.60;99.90
8792;DHT22;4432;50.890;4.744;2022-07-21T07:32:50;18.60;99.90
8792;DHT22;4432;50.890;4.744;2022-07-21T07:35:17;18.50;99.90
8792;DHT22;4432;50.890;4.744;2022-07-21T07:37:44;18.50;99.90
8792;DHT22;4432;50.890;4.744;2022-07-21T07:40:14;18.60;99.90
8792;DHT22;4432;50.890;4.744;2022-07-21T07:42:40;18.50;99.90
8792;DHT22;4432;50.890;4.744;2022-07-21T07:45:07;18.50;99.90
8792;DHT22;4432;50.890;4.744;2022-07-21T07:47:33;18.50;99.90
8792;DHT22;4432;50.890;4.744;2022-07-21T07:49:59;18.50;99.90
8792;DHT22;4432;50.890;4.744;2022-07-21T07:52:25;18.40;99.90
8792;DHT22;4432;50.890;4.744;2022-07-21T07:54:51;18.40;99.90
8792;DHT22;4432;50.890;4.744;2022-07-21T07:57:17;18.40;99.90
8792;DHT22;4432;50.890;4.744;2022-07-21T07:59:43;18.40;99.90
8792;DHT22;4432;50.890;4.744;2022-07-21T08:02:09;18.40;99.90
8792;DHT22;4432;50.890;4.744;2022-07-21T08:04:35;18.40;99.90
8792;DHT22;4432;50.890;4.744;2022-07-21T08:07:02;18.40;99.90
8792;DHT22;4432;50.890;4.744;2022-07-21T08:09:28;18.40;99.90
8792;DHT22;4432;50.890;4.744;2022-07-21T08:11:54;18.40;99.90
8792;DHT22;4432;50.890;4.744;2022-07-21T08:14:20;18.40;99.90
8792;DHT22;4432;50.890;4.744;2022-07-21T08:16:46;18.30;99.90
8792;DHT22;4432;50.890;4.744;2022-07-21T08:19:12;18.40;99.90
8792;DHT22;4432;50.890;4.744;2022-07-21T08:21:38;18.40;99.90
8792;DHT22;4432;50.890;4.744;2022-07-21T08:24:04;18.40;99.90
8792;DHT22;4432;50.890;4.744;2022-07-21T08:26:30;18.40;99.90
8792;DHT22;4432;50.890;4.744;2022-07-21T08:28:57;18.40;99.90
8792;DHT22;4432;50.890;4.744;2022-07-21T08:31:23;18.40;99.90
8792;DHT22;4432;50.890;4.744;2022-07-21T08:33:50;18.40;99.90
8792;DHT22;4432;50.890;4.744;2022-07-21T08:36:17;18.50;99.90
8792;DHT22;4432;50.890;4.744;2022-07-21T08:38:43;18.50;99.90
8792;DHT22;4432;50.890;4.744;2022-07-21T08:41:10;18.50;99.90
8792;DHT22;4432;50.890;4.744;2022-07-21T08:43:36;18.50;99.90
8792;DHT22;4432;50.890;4.744;2022-07-21T08:46:02;18.50;99.90
8792;DHT22;4432;50.890;4.744;2022-07-21T08:48:28;18.50;99.90
8792;DHT22;4432;50.890;4.744;2022-07-21T08:50:55;18.60;99.90
8792;DHT22;4432;50.890;4.744;2022-07-21T08:53:22;18.60;99.90
8792;DHT22;4432;50.890;4.744;2022-07-21T08:55:48;18.60;99.90
8792;DHT22;4432;50.890;4.744;2022-07-21T08:58:14;18.50;99.90
8792;DHT22;4432;50.890;4.744;2022-07-21T09:00:43;18.50;99.90
8792;DHT22;4432;50.890;4.744;2022-07-21T09:03:23;18.50;99.90
8792;DHT22;4432;50.890;4.744;2022-07-21T09:06:02;18.50;99.90
8792;DHT22;4432;50.890;4.744;2022-07-21T09:08:29;18.50;99.90
8792;DHT22;4432;50.890;4.744;2022-07-21T09:13:33;18.50;99.90
8792;DHT22;4432;50.890;4.744;2022-07-21T09:15:59;18.60;99.90
8792;DHT22;4432;50.890;4.744;2022-07-21T09:18:24;18.60;99.90
8792;DHT22;4432;50.890;4.744;2022-07-21T09:20:52;18.70;99.90
8792;DHT22;4432;50.890;4.744;2022-07-21T09:23:21;18.60;99.90
8792;DHT22;4432;50.890;4.744;2022-07-21T09:25:55;18.60;99.90
8792;DHT22;4432;50.890;4.744;2022-07-21T09:28:29;18.60;99.90
8792;DHT22;4432;50.890;4.744;2022-07-21T09:30:58;18.50;99.90
8792;DHT22;4432;50.890;4.744;2022-07-21T09:33:36;18.50;99.90
8792;DHT22;4432;50.890;4.744;2022-07-21T09:36:10;18.50;99.90
8792;DHT22;4432;50.890;4.744;2022-07-21T09:41:06;18.50;99.90
8792;DHT22;4432;50.890;4.744;2022-07-21T09:43:41;18.50;99.90
8792;DHT22;4432;50.890;4.744;2022-07-21T09:46:17;18.50;99.90
8792;DHT22;4432;50.890;4.744;2022-07-21T09:48:46;18.40;99.90
8792;DHT22;4432;50.890;4.744;2022-07-21T09:51:30;18.40;99.90
8792;DHT22;4432;50.890;4.744;2022-07-21T09:54:11;18.50;99.90
8792;DHT22;4432;50.890;4.744;2022-07-21T09:56:44;18.50;99.90
8792;DHT22;4432;50.890;4.744;2022-07-21T09:59:12;18.40;99.90
8792;DHT22;4432;50.890;4.744;2022-07-21T10:01:38;18.40;99.90
8792;DHT22;4432;50.890;4.744;2022-07-21T10:04:05;18.40;99.90
8792;DHT22;4432;50.890;4.744;2022-07-21T10:06:36;18.40;99.90
8792;DHT22;4432;50.890;4.744;2022-07-21T10:09:05;18.30;99.90
8792;DHT22;4432;50.890;4.744;2022-07-21T10:11:31;18.20;99.90
8792;DHT22;4432;50.890;4.744;2022-07-21T10:13:57;18.20;99.90
8792;DHT22;4432;50.890;4.744;2022-07-21T10:16:22;18.20;99.90
8792;DHT22;4432;50.890;4.744;2022-07-21T10:19:03;18.20;99.90
8792;DHT22;4432;50.890;4.744;2022-07-21T10:21:46;18.20;99.90
8792;DHT22;4432;50.890;4.744;2022-07-21T10:24:16;18.30;99.90
8792;DHT22;4432;50.890;4.744;2022-07-21T10:27:02;18.30;99.90
8792;DHT22;4432;50.890;4.744;2022-07-21T10:30:01;18.40;99.90
8792;DHT22;4432;50.890;4.744;2022-07-21T10:32:35;18.40;99.90
8792;DHT22;4432;50.890;4.744;2022-07-21T10:35:27;18.50;99.90
8792;DHT22;4432;50.890;4.744;2022-07-21T10:37:54;18.60;99.90
8792;DHT22;4432;50.890;4.744;2022-07-21T10:45:33;18.70;99.90
8792;DHT22;4432;50.890;4.744;2022-07-21T10:48:01;18.80;99.90
8792;DHT22;4432;50.890;4.744;2022-07-21T10:50:40;18.80;99.90
8792;DHT22;4432;50.890;4.744;2022-07-21T10:53:17;18.90;99.90
8792;DHT22;4432;50.890;4.744;2022-07-21T10:55:48;18.90;99.90
8792;DHT22;4432;50.890;4.744;2022-07-21T10:58:36;18.90;99.90
8792;DHT22;4432;50.890;4.744;2022-07-21T11:03:36;19.20;99.90
8792;DHT22;4432;50.890;4.744;2022-07-21T11:06:22;19.20;99.90
8792;DHT22;4432;50.890;4.744;2022-07-21T11:11:17;19.40;99.90
8792;DHT22;4432;50.890;4.744;2022-07-21T11:14:17;19.70;99.90
8792;DHT22;4432;50.890;4.744;2022-07-21T11:16:57;19.70;99.90
8792;DHT22;4432;50.890;4.744;2022-07-21T11:19:45;19.80;99.90
8792;DHT22;4432;50.890;4.744;2022-07-21T11:22:16;19.60;99.90
8792;DHT22;4432;50.890;4.744;2022-07-21T11:24:45;19.60;99.90
8792;DHT22;4432;50.890;4.744;2022-07-21T11:27:17;19.60;99.90
8792;DHT22;4432;50.890;4.744;2022-07-21T11:29:45;19.60;99.90
8792;DHT22;4432;50.890;4.744;2022-07-21T11:32:12;19.70;99.90
8792;DHT22;4432;50.890;4.744;2022-07-21T11:34:53;19.80;99.90
8792;DHT22;4432;50.890;4.744;2022-07-21T11:37:42;20.00;99.90
8792;DHT22;4432;50.890;4.744;2022-07-21T11:40:16;20.30;99.90
8792;DHT22;4432;50.890;4.744;2022-07-21T11:42:44;20.40;99.90
8792;DHT22;4432;50.890;4.744;2022-07-21T11:45:11;20.30;99.90
8792;DHT22;4432;50.890;4.744;2022-07-21T11:47:37;20.30;99.90
8792;DHT22;4432;50.890;4.744;2022-07-21T11:50:09;20.20;99.90
8792;DHT22;4432;50.890;4.744;2022-07-21T11:52:38;20.00;99.90
8792;DHT22;4432;50.890;4.744;2022-07-21T11:55:07;19.70;99.90
8792;DHT22;4432;50.890;4.744;2022-07-21T11:57:33;19.60;99.90
8792;DHT22;4432;50.890;4.744;2022-07-21T11:59:59;19.40;99.90
8792;DHT22;4432;50.890;4.744;2022-07-21T12:02:27;19.30;99.90
8792;DHT22;4432;50.890;4.744;2022-07-21T12:05:02;19.10;99.90
8792;DHT22;4432;50.890;4.744;2022-07-21T12:07:41;19.10;99.90
8792;DHT22;4432;50.890;4.744;2022-07-21T12:10:21;19.00;99.90
8792;DHT22;4432;50.890;4.744;2022-07-21T12:12:48;18.90;99.90
8792;DHT22;4432;50.890;4.744;2022-07-21T12:15:23;18.80;99.90
8792;DHT22;4432;50.890;4.744;2022-07-21T12:17:58;18.60;99.90
8792;DHT22;4432;50.890;4.744;2022-07-21T12:22:51;18.70;99.90
8792;DHT22;4432;50.890;4.744;2022-07-21T12:25:18;19.00;99.90
8792;DHT22;4432;50.890;4.744;2022-07-21T12:27:54;19.20;99.90
8792;DHT22;4432;50.890;4.744;2022-07-21T12:30:48;19.40;99.90
8792;DHT22;4432;50.890;4.744;2022-07-21T12:33:27;19.70;99.90
8792;DHT22;4432;50.890;4.744;2022-07-21T12:36:06;19.90;99.90
8792;DHT22;4432;50.890;4.744;2022-07-21T12:38:37;19.90;99.90
8792;DHT22;4432;50.890;4.744;2022-07-21T12:41:03;19.70;99.90
8792;DHT22;4432;50.890;4.744;2022-07-21T12:43:29;19.60;99.90
8792;DHT22;4432;50.890;4.744;2022-07-21T12:46:13;19.50;99.90
8792;DHT22;4432;50.890;4.744;2022-07-21T12:48:44;19.40;99.90
8792;DHT22;4432;50.890;4.744;2022-07-21T12:51:15;19.40;99.90
8792;DHT22;4432;50.890;4.744;2022-07-21T12:53:53;19.30;99.90
8792;DHT22;4432;50.890;4.744;2022-07-21T12:56:31;19.20;99.90
8792;DHT22;4432;50.890;4.744;2022-07-21T12:58:59;19.10;99.90
8792;DHT22;4432;50.890;4.744;2022-07-21T13:01:27;19.10;99.90
8792;DHT22;4432;50.890;4.744;2022-07-21T13:03:53;19.10;99.90
8792;DHT22;4432;50.890;4.744;2022-07-21T13:06:19;19.00;99.90
8792;DHT22;4432;50.890;4.744;2022-07-21T13:08:46;18.90;99.90
8792;DHT22;4432;50.890;4.744;2022-07-21T13:11:15;18.80;99.90
8792;DHT22;4432;50.890;4.744;2022-07-21T13:13:41;18.70;99.90
8792;DHT22;4432;50.890;4.744;2022-07-21T13:16:07;18.70;99.90
8792;DHT22;4432;50.890;4.744;2022-07-21T13:18:34;18.70;99.90
8792;DHT22;4432;50.890;4.744;2022-07-21T13:21:00;18.70;99.90
8792;DHT22;4432;50.890;4.744;2022-07-21T13:23:26;18.70;99.90
8792;DHT22;4432;50.890;4.744;2022-07-21T13:25:52;18.70;99.90
8792;DHT22;4432;50.890;4.744;2022-07-21T13:28:18;18.70;99.90
8792;DHT22;4432;50.890;4.744;2022-07-21T13:30:45;18.70;99.90
8792;DHT22;4432;50.890;4.744;2022-07-21T13:33:12;18.80;99.90
8792;DHT22;4432;50.890;4.744;2022-07-21T13:35:38;19.00;99.90
8792;DHT22;4432;50.890;4.744;2022-07-21T13:38:04;19.20;99.90
8792;DHT22;4432;50.890;4.744;2022-07-21T13:40:29;19.50;99.90
8792;DHT22;4432;50.890;4.744;2022-07-21T13:42:55;19.80;99.90
8792;DHT22;4432;50.890;4.744;2022-07-21T13:45:21;20.00;99.90
8792;DHT22;4432;50.890;4.744;2022-07-21T13:47:47;20.10;99.90
8792;DHT22;4432;50.890;4.744;2022-07-21T13:50:13;20.00;99.90
8792;DHT22;4432;50.890;4.744;2022-07-21T13:52:39;20.00;99.90
8792;DHT22;4432;50.890;4.744;2022-07-21T13:55:08;20.10;99.90
8792;DHT22;4432;50.890;4.744;2022-07-21T13:57:34;20.00;99.90
8792;DHT22;4432;50.890;4.744;2022-07-21T14:00:05;19.80;99.90
8792;DHT22;4432;50.890;4.744;2022-07-21T14:02:32;19.50;99.90
8792;DHT22;4432;50.890;4.744;2022-07-21T14:04:58;19.40;99.90
8792;DHT22;4432;50.890;4.744;2022-07-21T14:07:24;19.40;99.90
8792;DHT22;4432;50.890;4.744;2022-07-21T14:09:50;19.30;99.90
8792;DHT22;4432;50.890;4.744;2022-07-21T14:12:15;19.20;99.90
8792;DHT22;4432;50.890;4.744;2022-07-21T14:14:44;19.20;99.90
8792;DHT22;4432;50.890;4.744;2022-07-21T14:17:13;19.00;99.90
8792;DHT22;4432;50.890;4.744;2022-07-21T14:19:39;18.90;99.90
8792;DHT22;4432;50.890;4.744;2022-07-21T14:22:05;19.10;99.90
8792;DHT22;4432;50.890;4.744;2022-07-21T14:24:31;19.20;99.90
8792;DHT22;4432;50.890;4.744;2022-07-21T14:27:15;19.30;99.90
8792;DHT22;4432;50.890;4.744;2022-07-21T14:29:40;19.50;99.90
8792;DHT22;4432;50.890;4.744;2022-07-21T14:32:06;19.60;99.90
8792;DHT22;4432;50.890;4.744;2022-07-21T14:34:32;19.60;99.90
8792;DHT22;4432;50.890;4.744;2022-07-21T14:36:58;19.60;99.90
8792;DHT22;4432;50.890;4.744;2022-07-21T14:39:24;19.60;99.90
8792;DHT22;4432;50.890;4.744;2022-07-21T14:41:49;19.70;99.90
8792;DHT22;4432;50.890;4.744;2022-07-21T14:44:16;19.90;99.90
8792;DHT22;4432;50.890;4.744;2022-07-21T14:46:42;20.10;99.90
8792;DHT22;4432;50.890;4.744;2022-07-21T14:49:08;20.10;99.90
8792;DHT22;4432;50.890;4.744;2022-07-21T14:51:34;20.00;99.90
8792;DHT22;4432;50.890;4.744;2022-07-21T14:54:00;20.10;99.90
8792;DHT22;4432;50.890;4.744;2022-07-21T14:56:26;19.90;99.90
8792;DHT22;4432;50.890;4.744;2022-07-21T14:58:52;19.90;99.90
8792;DHT22;4432;50.890;4.744;2022-07-21T15:01:17;19.80;99.90
8792;DHT22;4432;50.890;4.744;2022-07-21T15:03:43;20.00;99.90
8792;DHT22;4432;50.890;4.744;2022-07-21T15:06:09;20.10;99.90
8792;DHT22;4432;50.890;4.744;2022-07-21T15:08:35;20.10;99.90
8792;DHT22;4432;50.890;4.744;2022-07-21T15:11:01;20.00;99.90
8792;DHT22;4432;50.890;4.744;2022-07-21T15:13:26;19.90;99.90
8792;DHT22;4432;50.890;4.744;2022-07-21T15:15:55;19.90;99.90
8792;DHT22;4432;50.890;4.744;2022-07-21T15:18:21;19.70;99.90
8792;DHT22;4432;50.890;4.744;2022-07-21T15:20:47;19.80;99.90
8792;DHT22;4432;50.890;4.744;2022-07-21T15:23:13;19.90;99.90
8792;DHT22;4432;50.890;4.744;2022-07-21T15:25:40;20.20;99.90
8792;DHT22;4432;50.890;4.744;2022-07-21T15:28:06;20.50;99.90
8792;DHT22;4432;50.890;4.744;2022-07-21T15:30:32;20.70;99.90
8792;DHT22;4432;50.890;4.744;2022-07-21T15:32:58;20.70;99.90
8792;DHT22;4432;50.890;4.744;2022-07-21T15:35:24;20.70;99.90
8792;DHT22;4432;50.890;4.744;2022-07-21T15:37:50;20.50;99.90
8792;DHT22;4432;50.890;4.744;2022-07-21T15:40:16;20.60;99.90
8792;DHT22;4432;50.890;4.744;2022-07-21T15:42:42;20.60;99.90
8792;DHT22;4432;50.890;4.744;2022-07-21T15:45:09;20.70;99.90
8792;DHT22;4432;50.890;4.744;2022-07-21T15:47:36;20.80;99.90
8792;DHT22;4432;50.890;4.744;2022-07-21T15:50:02;20.90;99.90
8792;DHT22;4432;50.890;4.744;2022-07-21T15:52:28;21.00;99.90
8792;DHT22;4432;50.890;4.744;2022-07-21T15:54:54;21.10;99.90
8792;DHT22;4432;50.890;4.744;2022-07-21T15:57:20;21.20;99.90
8792;DHT22;4432;50.890;4.744;2022-07-21T15:59:46;20.90;99.90
8792;DHT22;4432;50.890;4.744;2022-07-21T16:02:14;20.70;99.90
8792;DHT22;4432;50.890;4.744;2022-07-21T16:04:41;20.40;99.90
8792;DHT22;4432;50.890;4.744;2022-07-21T16:07:08;20.10;99.90
8792;DHT22;4432;50.890;4.744;2022-07-21T16:09:35;20.00;99.90
8792;DHT22;4432;50.890;4.744;2022-07-21T16:12:02;19.90;99.90
8792;DHT22;4432;50.890;4.744;2022-07-21T16:14:28;19.80;99.90
8792;DHT22;4432;50.890;4.744;2022-07-21T16:16:54;19.90;99.90
8792;DHT22;4432;50.890;4.744;2022-07-21T16:19:22;20.00;99.90
8792;DHT22;4432;50.890;4.744;2022-07-21T16:21:48;20.20;99.90
8792;DHT22;4432;50.890;4.744;2022-07-21T16:24:15;20.30;99.90